Time;durP1;ratioP1;P1;durP2;ratioP2;P2;SDS_P1;SDS_P2;PMS_P1;PMS_P2;Temp;Humidity;BMP_temperature;BMP_pressure;BME280_temperature;BME280_humidity;BME280_pressure;Samples;Min_cycle;Max_cycle;Signal;HPM_P1;HPM_P2
2022/06/05 00:00:13;;;;;;;1.70;1.30;;;16.30;1.40;;;17.82;100.00;95439.27;650258;212;31532;-76
2022/06/05 00:03:00;;;;;;;1.95;1.70;;;16.30;1.40;;;17.78;100.00;95437.77;646462;212;31579;-76
2022/06/05 00:05:52;;;;;;;2.55;1.60;;;16.30;1.40;;;17.82;100.00;95431.41;646219;212;31555;-74
2022/06/05 00:11:16;;;;;;;2.13;1.53;;;16.20;1.40;;;17.69;100.00;95411.94;649310;216;32202;-77
2022/06/05 00:13:58;;;;;;;2.60;1.50;;;16.10;1.40;;;17.74;100.00;95407.23;652376;216;31536;-76
2022/06/05 00:16:41;;;;;;;2.40;1.85;;;16.30;1.40;;;17.77;100.00;95400.58;646088;212;32057;-77
2022/06/05 00:19:22;;;;;;;1.90;1.48;;;16.30;1.40;;;17.77;100.00;95396.05;646404;216;31503;-76
2022/06/05 00:22:06;;;;;;;2.70;1.60;;;16.30;1.40;;;17.74;100.00;95393.77;652899;212;31546;-75
2022/06/05 00:24:46;;;;;;;2.42;2.03;;;16.20;1.40;;;17.78;100.00;95395.92;648074;215;31542;-75
2022/06/05 00:27:39;;;;;;;2.22;2.03;;;16.30;1.40;;;17.79;100.00;95396.42;647029;212;31487;-75
2022/06/05 00:30:21;;;;;;;3.55;2.10;;;16.20;1.40;;;17.74;100.00;95394.64;621574;226;32837;-76
2022/06/05 00:35:58;;;;;;;2.97;1.92;;;16.20;1.40;;;17.67;100.00;95400.92;646591;212;31590;-75
2022/06/05 00:38:54;;;;;;;1.73;1.62;;;16.20;1.40;;;17.67;100.00;95402.61;650084;212;31591;-75
2022/06/05 00:41:58;;;;;;;3.22;1.50;;;16.20;1.40;;;17.60;100.00;95400.87;650331;216;31543;-75
2022/06/05 00:44:47;;;;;;;2.90;1.90;;;16.20;1.40;;;17.59;100.00;95402.96;646967;212;31652;-76
2022/06/05 00:47:29;;;;;;;1.50;1.20;;;16.10;1.40;;;17.52;100.00;95397.47;647205;212;31636;-75
2022/06/05 00:50:22;;;;;;;2.10;1.90;;;16.00;1.40;;;17.44;100.00;95401.93;647569;216;31539;-75
2022/06/05 00:53:02;;;;;;;2.20;1.52;;;15.90;1.40;;;17.40;100.00;95407.59;652263;216;42190;-76
2022/06/05 00:55:44;;;;;;;2.87;2.12;;;15.90;1.40;;;17.35;100.00;95401.44;616267;222;32338;-76
2022/06/05 00:58:26;;;;;;;1.77;1.67;;;15.80;1.40;;;17.32;100.00;95401.01;645222;212;31521;-75
2022/06/05 01:01:08;;;;;;;3.33;1.92;;;15.80;1.40;;;17.25;100.00;95388.81;653088;216;31534;-76
2022/06/05 01:03:50;;;;;;;3.20;1.50;;;15.70;1.40;;;17.24;100.00;95395.39;653667;216;31521;-75
2022/06/05 01:06:34;;;;;;;1.95;1.40;;;15.70;1.40;;;17.19;100.00;95396.06;647211;212;31815;-76
2022/06/05 01:09:16;;;;;;;2.50;1.60;;;15.70;1.40;;;17.21;100.00;95394.68;638383;212;33905;-75
2022/06/05 01:12:05;;;;;;;1.75;1.40;;;15.60;1.40;;;17.16;100.00;95387.78;647688;216;31620;-75
2022/06/05 01:14:47;;;;;;;4.13;1.77;;;15.70;1.40;;;17.16;100.00;95383.34;646080;216;31601;-75
2022/06/05 01:17:55;;;;;;;3.22;1.80;;;15.60;1.40;;;17.12;100.00;95373.05;651485;216;32004;-76
2022/06/05 01:20:48;;;;;;;2.93;2.13;;;15.60;1.40;;;17.05;100.00;95369.74;650293;216;32083;-75
2022/06/05 01:26:26;;;;;;;1.40;1.30;;;15.50;1.40;;;17.02;100.00;95359.21;643378;216;31558;-75
2022/06/05 01:29:10;;;;;;;2.00;1.52;;;15.50;1.40;;;17.05;100.00;95359.52;649911;216;31688;-76
2022/06/05 01:32:02;;;;;;;1.30;1.20;;;15.50;1.40;;;17.01;100.00;95361.17;646673;212;31527;-76
2022/06/05 01:36:06;;;;;;;1.80;1.70;;;15.50;1.40;;;16.98;100.00;95357.22;625807;226;31938;-75
2022/06/05 01:39:07;;;;;;;3.08;1.58;;;15.50;1.40;;;16.94;100.00;95354.65;623911;226;32144;-76
2022/06/05 01:41:54;;;;;;;2.50;2.27;;;15.50;1.40;;;16.94;100.00;95351.11;645175;216;31493;-77
2022/06/05 01:44:37;;;;;;;2.30;1.80;;;15.50;1.40;;;16.93;100.00;95351.89;616791;224;31951;-75
2022/06/05 01:49:57;;;;;;;1.67;1.57;;;15.50;1.40;;;16.92;100.00;95349.01;654356;216;31888;-76
2022/06/05 01:52:41;;;;;;;1.40;1.08;;;15.50;1.40;;;16.92;100.00;95349.88;651913;216;31944;-75
2022/06/05 01:58:04;;;;;;;2.30;1.20;;;15.40;1.40;;;16.86;100.00;95344.26;646873;212;31575;-76
2022/06/05 02:00:48;;;;;;;2.08;1.55;;;15.40;1.40;;;16.85;100.00;95339.13;645945;216;31768;-75
2022/06/05 02:06:07;;;;;;;1.55;1.45;;;15.50;1.40;;;16.88;100.00;95333.84;651446;212;31564;-77
2022/06/05 02:08:52;;;;;;;0.80;0.70;;;15.50;1.40;;;16.85;100.00;95332.91;644140;216;31674;-74
2022/06/05 02:11:34;;;;;;;1.47;1.23;;;15.40;1.40;;;16.84;100.00;95327.58;653581;212;31522;-75
2022/06/05 02:14:15;;;;;;;1.35;1.25;;;15.30;1.40;;;16.81;100.00;95324.80;644446;212;31470;-78
2022/06/05 02:16:57;;;;;;;1.65;1.10;;;15.30;1.40;;;16.82;100.00;95324.84;619875;226;31856;-75
2022/06/05 02:19:42;;;;;;;1.92;1.33;;;15.40;1.40;;;16.79;100.00;95323.93;653233;212;31544;-76
2022/06/05 02:22:24;;;;;;;1.73;1.02;;;15.30;1.40;;;16.88;100.00;95321.97;649203;216;31580;-76
2022/06/05 02:25:06;;;;;;;1.70;1.37;;;15.40;1.40;;;16.89;100.00;95313.30;648754;216;31540;-75
2022/06/05 02:27:49;;;;;;;1.17;1.03;;;15.50;1.40;;;16.92;100.00;95308.42;617133;222;31846;-75
2022/06/05 02:31:00;;;;;;;1.90;1.42;;;15.50;1.40;;;16.94;100.00;95294.75;651532;212;31605;-74
2022/06/05 02:35:56;;;;;;;1.60;1.20;;;15.80;1.40;;;17.05;100.00;95285.50;650375;216;31584;-76
2022/06/05 02:39:03;;;;;;;2.03;1.83;;;15.90;1.40;;;17.03;100.00;95279.78;649734;216;31629;-75
2022/06/05 02:44:29;;;;;;;2.10;1.20;;;15.70;1.40;;;16.92;100.00;95289.36;653624;212;31542;-74
2022/06/05 02:47:40;;;;;;;1.73;1.20;;;15.50;1.40;;;16.91;100.00;95275.73;647312;216;31881;-75
2022/06/05 02:50:28;;;;;;;2.23;1.43;;;15.50;1.40;;;16.90;100.00;95271.45;647580;212;31516;-75
2022/06/05 02:53:11;;;;;;;1.50;0.95;;;15.50;1.40;;;16.89;100.00;95260.56;648362;216;31466;-75
2022/06/05 02:55:52;;;;;;;1.73;1.42;;;15.50;1.40;;;16.89;100.00;95254.31;619983;226;31856;-76
2022/06/05 02:58:37;;;;;;;3.15;1.50;;;15.50;1.40;;;16.91;100.00;95252.67;649384;216;43032;-75
2022/06/05 03:04:09;;;;;;;3.40;1.17;;;15.50;1.40;;;16.89;100.00;95239.08;650320;212;31513;-77
2022/06/05 03:06:52;;;;;;;1.60;1.30;;;15.60;1.40;;;16.94;100.00;95232.80;651286;216;31696;-76
2022/06/05 03:09:34;;;;;;;1.37;0.90;;;15.70;1.40;;;16.89;100.00;95228.68;638206;216;31664;-75
2022/06/05 03:12:16;;;;;;;2.00;1.37;;;15.80;1.40;;;16.88;100.00;95225.19;650527;212;31556;-76
2022/06/05 03:15:04;;;;;;;1.48;1.37;;;15.80;1.40;;;16.87;100.00;95225.02;647722;216;31499;-75
2022/06/05 03:17:52;;;;;;;2.03;1.33;;;15.70;1.40;;;16.85;100.00;95227.39;647693;216;31533;-76
2022/06/05 03:20:34;;;;;;;2.17;1.45;;;15.70;1.40;;;16.86;100.00;95223.48;651484;212;32067;-75
2022/06/05 03:23:15;;;;;;;1.80;1.20;;;15.70;1.40;;;16.84;100.00;95224.06;646881;212;33490;-76
2022/06/05 03:25:57;;;;;;;2.60;1.03;;;15.80;1.40;;;16.89;100.00;95220.80;649792;216;31557;-75
2022/06/05 03:28:39;;;;;;;2.70;1.50;;;15.80;1.40;;;16.90;100.00;95213.36;644341;216;31590;-77
2022/06/05 03:31:21;;;;;;;0.95;0.73;;;15.70;1.40;;;16.85;100.00;95200.81;645307;212;31765;-75
2022/06/05 03:35:52;;;;;;;1.30;1.20;;;15.70;1.40;;;16.84;100.00;95202.86;653073;216;31641;-75
2022/06/05 03:38:36;;;;;;;3.55;1.70;;;15.70;1.40;;;16.89;100.00;95203.62;651392;216;31588;-76
2022/06/05 03:41:18;;;;;;;1.30;1.20;;;15.90;1.40;;;16.96;100.00;95198.49;649317;212;31508;-76
2022/06/05 03:44:04;;;;;;;2.20;2.00;;;15.80;1.40;;;16.97;100.00;95195.91;632595;221;31684;-77
2022/06/05 03:46:46;;;;;;;1.60;1.08;;;15.80;1.40;;;17.07;100.00;95193.10;650147;212;31541;-75
2022/06/05 03:49:32;;;;;;;1.80;1.00;;;15.80;1.40;;;17.16;100.00;95192.25;644490;216;31578;-75
2022/06/05 03:52:16;;;;;;;2.42;1.73;;;15.80;1.40;;;17.16;100.00;95200.05;621673;222;31862;-77
2022/06/05 03:57:33;;;;;;;1.60;0.93;;;15.90;1.40;;;17.25;100.00;95188.73;623774;226;31942;-77
2022/06/05 04:00:15;;;;;;;2.00;1.27;;;15.90;1.40;;;17.22;100.00;95182.35;649066;212;34079;-76
2022/06/05 04:02:57;;;;;;;2.58;2.08;;;16.00;1.40;;;17.21;100.00;95184.08;651270;212;31554;-76
2022/06/05 04:05:39;;;;;;;1.60;1.40;;;16.00;1.40;;;17.32;100.00;95180.79;648907;216;31495;-76
2022/06/05 04:08:22;;;;;;;1.98;1.27;;;16.10;1.40;;;17.35;100.00;95179.48;648364;212;31648;-76
2022/06/05 04:11:06;;;;;;;3.33;1.17;;;16.10;1.40;;;17.43;100.00;95172.21;654297;212;31577;-75
2022/06/05 04:13:55;;;;;;;1.50;1.10;;;16.20;1.40;;;17.49;100.00;95176.64;648796;212;31535;-75
2022/06/05 04:16:37;;;;;;;2.10;1.30;;;16.30;1.40;;;17.57;100.00;95178.13;645116;216;31606;-76
2022/06/05 04:19:21;;;;;;;3.62;1.70;;;16.30;1.40;;;17.69;100.00;95163.75;625858;226;31923;-75
2022/06/05 04:22:04;;;;;;;2.03;1.33;;;16.30;1.40;;;17.75;100.00;95159.02;654501;212;31538;-75
2022/06/05 04:24:45;;;;;;;1.20;1.10;;;16.40;1.40;;;17.96;100.00;95154.36;646348;216;31906;-75
2022/06/05 04:27:26;;;;;;;1.60;1.50;;;16.40;1.40;;;18.03;100.00;95159.58;651863;212;31500;-75
2022/06/05 04:30:08;;;;;;;1.52;1.05;;;16.50;1.40;;;18.03;100.00;95160.36;648800;212;31819;-75
2022/06/05 04:32:50;;;;;;;3.87;1.60;;;16.50;1.40;;;18.23;100.00;95160.87;643577;216;32653;-75
2022/06/05 04:35:51;;;;;;;2.10;1.90;;;16.50;1.40;;;18.17;100.00;95163.33;651196;212;31821;-76
2022/06/05 04:38:33;;;;;;;1.90;1.52;;;16.60;1.40;;;18.17;100.00;95163.86;646602;216;31679;-77
2022/06/05 04:41:20;;;;;;;1.80;1.10;;;16.60;1.40;;;18.29;100.00;95155.00;621235;226;31874;-76
2022/06/05 04:44:08;;;;;;;1.70;1.25;;;16.70;1.40;;;18.20;100.00;95149.57;644305;212;31504;-78
2022/06/05 04:46:50;;;;;;;1.42;1.10;;;16.80;1.40;;;18.18;100.00;95148.83;618878;222;32212;-75
2022/06/05 04:49:32;;;;;;;2.00;1.80;;;16.80;1.40;;;18.14;100.00;95156.20;644922;215;31530;-76
2022/06/05 04:52:13;;;;;;;2.10;1.10;;;16.90;1.40;;;18.19;100.00;95159.00;621660;226;32102;-76
2022/06/05 04:54:55;;;;;;;1.70;1.40;;;16.90;1.40;;;18.53;100.00;95166.23;617054;226;32058;-77
2022/06/05 04:57:37;;;;;;;1.45;1.00;;;17.00;1.40;;;18.81;100.00;95165.62;645792;216;31600;-76
2022/06/05 05:00:24;;;;;;;2.17;1.80;;;17.10;1.40;;;18.61;100.00;95163.59;650340;216;31711;-75
2022/06/05 05:03:09;;;;;;;3.60;1.80;;;17.10;1.40;;;18.75;100.00;95148.77;646346;216;31540;-76
2022/06/05 05:05:51;;;;;;;1.83;1.20;;;17.20;1.40;;;18.71;100.00;95149.95;648310;216;31536;-76
2022/06/05 05:08:33;;;;;;;1.60;1.50;;;17.30;1.40;;;18.76;100.00;95148.56;615908;226;32036;-76
2022/06/05 05:11:15;;;;;;;3.17;1.20;;;17.40;1.40;;;18.81;100.00;95145.64;651444;212;31489;-76
2022/06/05 05:13:57;;;;;;;1.80;1.40;;;17.50;1.40;;;18.78;100.00;95141.06;650184;216;31732;-76
2022/06/05 05:16:40;;;;;;;2.65;1.55;;;17.60;1.40;;;18.70;100.00;95129.27;647606;216;42191;-76
2022/06/05 05:19:24;;;;;;;1.77;1.37;;;17.70;1.40;;;18.83;100.00;95114.40;647553;212;43048;-75
2022/06/05 05:22:06;;;;;;;2.70;1.58;;;17.70;1.40;;;19.00;100.00;95113.17;648272;212;31752;-75
2022/06/05 05:24:48;;;;;;;1.85;1.70;;;17.80;1.40;;;19.14;100.00;95106.60;648782;216;31599;-76
2022/06/05 05:27:34;;;;;;;3.60;1.55;;;17.80;1.40;;;18.87;100.00;95111.70;645796;216;43322;-76
2022/06/05 05:30:15;;;;;;;1.60;1.50;;;17.90;1.40;;;18.89;100.00;95109.42;648719;212;43061;-76
2022/06/05 05:35:50;;;;;;;2.72;1.40;;;17.80;1.40;;;18.76;100.00;95102.38;618506;222;32087;-75
2022/06/05 05:38:34;;;;;;;5.93;2.12;;;17.80;1.40;;;18.84;100.00;95102.60;647071;216;31574;-77
2022/06/05 05:44:09;;;;;;;1.70;1.60;;;17.80;1.40;;;18.90;100.00;95109.86;620075;222;42568;-76
2022/06/05 05:46:51;;;;;;;1.55;1.45;;;17.90;1.40;;;18.90;100.00;95098.45;620696;225;42533;-76
2022/06/05 05:49:43;;;;;;;2.30;1.40;;;17.90;1.40;;;19.00;100.00;95103.23;647720;214;42183;-78
2022/06/05 05:52:33;;;;;;;2.05;1.20;;;18.00;1.40;;;18.90;100.00;95098.33;648887;216;31576;-75
2022/06/05 05:55:15;;;;;;;1.73;1.42;;;18.00;1.40;;;18.92;100.00;95093.61;646141;213;31639;-75
2022/06/05 05:57:56;;;;;;;1.98;1.58;;;18.10;1.40;;;19.04;100.00;95082.39;653687;212;31550;-75
2022/06/05 06:00:38;;;;;;;1.80;1.40;;;18.30;1.40;;;19.22;100.00;95076.31;648315;216;31700;-74
2022/06/05 06:03:20;;;;;;;1.80;1.70;;;18.50;1.40;;;19.54;100.00;95086.61;647973;216;31681;-74
2022/06/05 06:06:02;;;;;;;1.58;1.25;;;18.60;1.40;;;19.69;100.00;95084.32;646318;216;31606;-74
2022/06/05 06:08:53;;;;;;;1.83;1.50;;;18.20;1.40;;;19.17;100.00;95073.42;641045;216;42294;-77
2022/06/05 06:11:41;;;;;;;2.22;1.60;;;17.30;1.40;;;18.78;100.00;95086.33;645424;216;42194;-73
2022/06/05 06:14:22;;;;;;;;;;;16.70;1.40;;;18.63;100.00;95084.20;648049;220;24791;-73
2022/06/05 06:17:04;;;;;;;;;;;16.70;1.40;;;18.64;100.00;95083.66;653476;216;24841;-73
2022/06/05 06:19:51;;;;;;;;;;;16.90;1.40;;;18.80;100.00;95078.28;655511;212;24810;-77
2022/06/05 06:22:35;;;;;;;;;;;16.80;1.40;;;19.00;100.00;95072.86;658729;216;24820;-73
2022/06/05 06:25:16;;;;;;;;;;;16.90;1.40;;;19.27;100.00;95073.59;656364;212;25294;-73
2022/06/05 06:27:57;;;;;;;;;;;17.00;1.40;;;19.26;100.00;95080.08;651463;212;24715;-72
2022/06/05 06:30:38;;;;;;;;;;;17.20;1.40;;;19.23;100.00;95085.62;652832;216;24819;-73
2022/06/05 06:35:57;;;;;;;;;;;17.40;1.40;;;19.56;100.00;95097.72;652853;212;24948;-74
2022/06/05 06:38:40;;;;;;;;;;;17.70;1.40;;;19.72;100.00;95094.19;652713;216;24812;-73
2022/06/05 06:41:23;;;;;;;;;;;18.00;1.40;;;19.96;100.00;95093.67;653917;216;25192;-73
2022/06/05 06:44:04;;;;;;;;;;;18.10;1.40;;;20.06;100.00;95104.10;657423;216;24843;-73
2022/06/05 06:46:45;;;;;;;;;;;18.20;1.40;;;20.07;100.00;95101.33;655082;216;24730;-73
2022/06/05 06:49:27;;;;;;;;;;;18.30;1.40;;;20.09;100.00;95107.82;655298;216;25324;-73
2022/06/05 06:52:08;;;;;;;;;;;18.50;1.40;;;20.11;100.00;95110.07;655561;216;24814;-73
2022/06/05 06:54:50;;;;;;;;;;;18.50;1.40;;;20.10;100.00;95112.77;639934;221;24855;-73
2022/06/05 06:57:31;;;;;;;;;;;18.50;1.40;;;20.15;100.00;95131.37;649215;215;25419;-73
2022/06/05 07:00:15;;;;;;;;;;;18.70;1.40;;;20.49;100.00;95173.97;654504;216;24845;-73
2022/06/05 07:02:56;;;;;;;;;;;19.00;1.40;;;20.70;100.00;95268.11;651895;216;24823;-73
2022/06/05 07:05:37;;;;;;;;;;;19.10;1.40;;;20.39;100.00;95297.83;654813;216;24815;-73
2022/06/05 07:08:19;;;;;;;;;;;18.90;1.40;;;20.13;100.00;95270.34;650108;216;24863;-73
2022/06/05 07:11:00;;;;;;;;;;;18.80;1.40;;;20.48;100.00;95273.55;652259;216;24811;-73
2022/06/05 07:13:42;;;;;;;;;;;19.00;1.40;;;20.89;100.00;95300.43;652818;216;24731;-73
2022/06/05 07:16:31;;;;;;;;;;;19.60;1.40;;;21.16;100.00;95262.31;626954;225;24915;-73
2022/06/05 07:19:13;;;;;;;;;;;19.60;1.40;;;21.30;100.00;95290.95;635704;221;24751;-74
2022/06/05 07:21:54;;;;;;;;;;;19.60;1.40;;;21.48;100.00;95294.97;651830;212;24746;-74
2022/06/05 07:24:35;;;;;;;;;;;19.80;1.40;;;21.64;100.00;95281.49;654728;212;25776;-74
2022/06/05 07:27:17;;;;;;;;;;;19.90;1.40;;;21.85;100.00;95301.62;655665;216;24810;-74
2022/06/05 07:29:58;;;;;;;;;;;20.00;1.40;;;21.97;100.00;95292.08;652076;212;24820;-74
2022/06/05 07:32:40;;;;;;;;;;;20.00;1.40;;;22.08;100.00;95311.03;654130;212;24855;-74
2022/06/05 07:38:29;;;;;;;1.57;1.47;;;19.90;1.40;;;22.02;100.00;95307.13;648690;216;31703;-74
2022/06/05 07:41:15;;;;;;;1.60;1.30;;;19.90;1.40;;;22.30;100.00;95306.13;619599;226;31955;-74
2022/06/05 07:43:58;;;;;;;1.95;1.70;;;20.10;1.40;;;22.08;100.00;95309.67;646536;216;31670;-75
2022/06/05 07:46:41;;;;;;;3.30;1.90;;;19.90;1.40;;;21.73;100.00;95298.70;650921;216;31949;-77
2022/06/05 07:49:34;;;;;;;2.17;1.40;;;19.60;1.40;;;21.52;100.00;95313.16;649963;216;31601;-75
2022/06/05 07:55:03;;;;;;;2.72;1.83;;;19.40;1.40;;;21.75;100.00;95276.20;645413;215;32411;-75
2022/06/05 07:57:45;;;;;;;1.48;1.33;;;19.80;1.40;;;22.27;100.00;95243.13;649581;212;32067;-74
2022/06/05 08:00:26;;;;;;;1.70;1.60;;;20.20;1.40;;;21.97;100.00;95239.48;646554;216;31523;-74
2022/06/05 08:03:11;;;;;;;3.45;1.90;;;20.20;1.40;;;22.22;100.00;95263.53;648360;216;31705;-74
2022/06/05 08:05:53;;;;;;;3.08;2.40;;;20.20;1.40;;;22.58;100.00;95297.95;649979;216;31537;-75
2022/06/05 08:08:35;;;;;;;3.60;2.17;;;20.00;1.40;;;22.29;100.00;95331.83;644848;216;31559;-74
2022/06/05 08:11:22;;;;;;;2.28;1.70;;;19.60;1.40;;;21.91;100.00;95325.81;643949;215;33669;-77
2022/06/05 08:14:06;;;;;;;2.50;2.10;;;19.90;1.40;;;22.83;100.00;95296.27;647624;212;31590;-75
2022/06/05 08:16:48;;;;;;;2.03;1.83;;;20.20;1.40;;;22.98;100.00;95306.94;648279;216;31746;-75
2022/06/05 08:19:29;;;;;;;2.60;2.20;;;20.80;1.40;;;23.43;100.00;95319.66;645269;212;31618;-75
2022/06/05 08:22:11;;;;;;;3.50;2.13;;;20.90;1.40;;;23.75;100.00;95309.66;650686;212;31567;-76
2022/06/05 08:24:59;;;;;;;2.20;1.98;;;21.50;1.40;;;23.80;100.00;95316.52;644327;216;42146;-76
2022/06/05 08:27:42;;;;;;;2.25;2.05;;;21.70;1.40;;;24.16;100.00;95323.66;645824;212;31577;-74
2022/06/05 08:35:57;;;;;;;2.50;2.30;;;22.30;1.40;;;24.31;100.00;95324.98;647081;216;36783;-74
2022/06/05 08:41:48;;;;;;;2.45;2.25;;;21.70;1.40;;;24.84;100.00;95335.03;650831;216;31625;-77
2022/06/05 08:44:38;;;;;;;2.55;2.10;;;22.00;1.40;;;24.64;100.00;95335.81;633868;222;31716;-77
2022/06/05 08:47:29;;;;;;;2.20;1.70;;;21.80;1.40;;;24.79;100.00;95336.36;646591;216;31689;-75
2022/06/05 08:50:13;;;;;;;1.75;1.60;;;21.70;1.40;;;24.38;100.00;95344.48;647187;216;31562;-75
2022/06/05 08:52:56;;;;;;;2.78;2.20;;;21.50;1.40;;;24.13;100.00;95342.98;647577;216;31888;-75
2022/06/05 08:55:44;;;;;;;2.40;2.20;;;21.30;1.40;;;23.11;100.00;95337.62;648637;216;31590;-75
2022/06/05 08:58:39;;;;;;;2.00;1.80;;;21.10;1.40;;;23.04;100.00;95334.91;644752;216;31929;-75
2022/06/05 09:01:34;;;;;;;1.65;1.50;;;21.00;1.40;;;22.45;100.00;95335.91;618984;225;32221;-75
2022/06/05 09:04:22;;;;;;;2.00;1.87;;;20.90;1.40;;;22.17;100.00;95335.25;647586;216;31512;-76
2022/06/05 09:07:04;;;;;;;3.00;2.70;;;20.80;1.40;;;22.91;100.00;95333.69;646491;212;32055;-75
2022/06/05 09:09:51;;;;;;;2.20;2.00;;;20.80;1.40;;;22.90;100.00;95331.67;634928;216;32010;-77
2022/06/05 09:12:50;;;;;;;2.00;1.80;;;20.60;1.40;;;22.62;100.00;95334.28;646955;212;43237;-77
2022/06/05 09:15:34;;;;;;;2.80;1.80;;;20.50;1.40;;;22.58;100.00;95336.47;649765;212;31560;-76
2022/06/05 09:18:38;;;;;;;2.80;2.42;;;20.40;1.40;;;21.92;100.00;95342.27;648000;216;31637;-76
2022/06/05 09:21:27;;;;;;;3.40;2.00;;;20.10;1.40;;;21.91;100.00;95333.63;649093;212;32098;-76
2022/06/05 09:24:14;;;;;;;2.30;1.95;;;19.90;1.40;;;21.88;100.00;95332.27;618579;226;32208;-76
2022/06/05 09:27:00;;;;;;;3.50;2.10;;;19.90;1.40;;;21.90;100.00;95333.23;648428;216;31554;-75
2022/06/05 09:30:00;;;;;;;2.60;2.40;;;19.90;1.40;;;21.71;100.00;95336.41;652019;216;31549;-75
2022/06/05 09:32:55;;;;;;;3.45;2.62;;;19.90;1.40;;;21.89;100.00;95343.18;647402;216;31573;-76
2022/06/05 09:38:49;;;;;;;2.78;2.40;;;20.10;1.40;;;22.12;100.00;95343.70;650584;212;31592;-75
2022/06/05 09:47:01;;;;;;;3.50;2.40;;;20.00;1.40;;;22.21;100.00;95355.36;646352;212;31559;-75
2022/06/05 09:49:43;;;;;;;3.22;2.67;;;20.20;1.40;;;22.33;100.00;95364.56;651701;216;31538;-77
2022/06/05 09:52:31;;;;;;;3.70;3.05;;;20.20;1.40;;;21.92;100.00;95361.82;646370;212;31636;-76
2022/06/05 09:55:19;;;;;;;3.33;2.62;;;20.00;1.40;;;21.98;100.00;95357.38;652219;216;31620;-75
2022/06/05 10:00:55;;;;;;;2.97;2.78;;;20.20;1.40;;;22.19;100.00;95341.59;622873;226;31905;-77
2022/06/05 10:09:15;;;;;;;2.70;2.50;;;20.50;1.40;;;23.33;100.00;95326.27;646103;216;31718;-74
2022/06/05 10:12:07;;;;;;;4.05;2.40;;;21.00;1.40;;;23.46;100.00;95325.34;645712;216;31559;-77
2022/06/05 10:14:59;;;;;;;2.15;1.95;;;21.10;1.40;;;23.57;100.00;95328.33;647486;216;42160;-74
2022/06/05 10:17:51;;;;;;;3.87;2.78;;;21.10;1.40;;;23.49;100.00;95324.58;647506;216;42746;-75
2022/06/05 10:20:57;;;;;;;2.30;2.10;;;20.90;1.40;;;22.89;100.00;95320.12;642231;215;31600;-77
2022/06/05 10:23:57;;;;;;;2.30;2.10;;;20.70;1.40;;;23.24;100.00;95326.03;651417;216;42179;-74
2022/06/05 10:26:48;;;;;;;3.40;2.50;;;20.90;1.40;;;22.92;100.00;95325.97;646564;212;42268;-76
2022/06/05 10:29:38;;;;;;;10.73;2.83;;;20.70;1.40;;;23.00;100.00;95322.49;643856;216;31609;-74
2022/06/05 10:32:41;;;;;;;2.58;2.35;;;20.70;1.40;;;23.36;100.00;95318.65;644198;216;31635;-76
2022/06/05 10:36:00;;;;;;;2.70;2.50;;;20.80;1.40;;;23.27;100.00;95316.60;654171;216;31647;-77
2022/06/05 10:39:14;;;;;;;2.87;2.47;;;20.80;1.40;;;22.98;100.00;95306.27;626899;222;43020;-76
2022/06/05 10:42:20;;;;;;;3.20;2.90;;;20.80;1.40;;;22.91;100.00;95304.20;649398;212;31586;-76
2022/06/05 10:45:14;;;;;;;5.03;2.80;;;20.70;1.40;;;22.99;100.00;95292.57;647920;216;32057;-75
2022/06/05 10:48:26;;;;;;;3.00;2.70;;;20.90;1.40;;;23.42;100.00;95294.28;648015;216;32089;-75
2022/06/05 10:51:39;;;;;;;2.50;2.00;;;21.30;1.40;;;23.80;100.00;95292.45;645317;212;31892;-75
2022/06/05 10:54:54;;;;;;;3.10;2.80;;;21.40;1.40;;;23.21;100.00;95286.26;646376;216;42301;-75
2022/06/05 10:57:38;;;;;;;3.30;2.40;;;21.40;1.40;;;23.38;100.00;95275.73;623925;225;42728;-76
2022/06/05 11:00:32;;;;;;;2.42;2.22;;;21.40;1.40;;;23.58;100.00;95274.32;648803;216;31514;-77
2022/06/05 11:03:27;;;;;;;3.40;2.55;;;21.60;1.40;;;23.59;100.00;95271.31;647469;216;31662;-76
2022/06/05 11:06:18;;;;;;;3.30;2.90;;;21.50;1.40;;;24.09;100.00;95262.81;649826;212;31571;-75
2022/06/05 11:09:41;;;;;;;4.03;2.62;;;21.70;1.40;;;24.66;100.00;95258.63;642578;212;32277;-76
2022/06/05 11:20:51;;;;;;;2.62;2.42;;;22.60;1.40;;;26.33;100.00;95244.66;647376;216;31758;-75
2022/06/05 11:23:39;;;;;;;2.87;2.58;;;23.50;1.40;;;26.85;100.00;95246.38;647046;216;31588;-77
2022/06/05 11:26:30;;;;;;;2.85;2.65;;;23.40;1.40;;;26.45;100.00;95233.73;646752;216;32146;-75
2022/06/05 11:29:35;;;;;;;2.92;2.45;;;23.30;1.40;;;26.01;100.00;95222.45;643832;216;31534;-76
2022/06/05 11:32:26;;;;;;;3.30;3.00;;;23.80;1.40;;;27.31;100.00;95217.94;650652;212;31662;-75
2022/06/05 11:35:58;;;;;;;3.20;2.90;;;24.70;1.40;;;28.04;100.00;95216.20;648578;212;31587;-77
2022/06/05 11:38:54;;;;;;;3.42;3.12;;;25.10;1.40;;;29.87;94.78;95207.26;647628;216;32157;-76
2022/06/05 11:41:44;;;;;;;3.60;3.30;;;26.90;1.40;;;31.34;86.70;95197.88;645869;216;31554;-76
2022/06/05 11:44:35;;;;;;;4.00;3.47;;;26.90;1.40;;;31.45;85.43;95195.42;647191;212;31832;-76
2022/06/05 11:47:25;;;;;;;3.62;3.33;;;26.20;1.40;;;29.45;88.78;95202.19;621713;222;32590;-75
2022/06/05 11:50:25;;;;;;;4.50;4.10;;;25.50;1.40;;;27.51;100.00;95203.09;647747;216;31548;-78
2022/06/05 11:56:40;;;;;;;4.53;4.12;;;24.40;1.40;;;28.99;100.00;95201.34;649025;216;31578;-75
2022/06/05 11:59:35;;;;;;;3.92;3.53;;;23.90;1.40;;;28.28;96.63;95203.69;649926;216;31574;-75
2022/06/05 12:02:32;;;;;;;3.67;2.87;;;23.50;1.40;;;26.89;100.00;95203.36;647689;216;31596;-75
2022/06/05 12:05:21;;;;;;;4.72;3.30;;;23.40;1.40;;;26.41;100.00;95202.23;647786;216;31527;-74
2022/06/05 12:08:10;;;;;;;3.80;3.17;;;23.40;1.40;;;25.87;100.00;95201.23;642914;216;31881;-76
2022/06/05 12:11:02;;;;;;;2.95;2.75;;;23.10;1.40;;;27.13;100.00;95192.56;651407;212;31577;-75
2022/06/05 12:13:49;;;;;;;3.72;3.42;;;23.70;1.40;;;27.86;100.00;95193.00;644798;216;31600;-75
2022/06/05 12:16:37;;;;;;;3.40;3.10;;;24.30;1.40;;;26.90;100.00;95198.28;644435;216;31555;-76
2022/06/05 12:19:43;;;;;;;4.65;3.78;;;23.80;1.40;;;27.47;100.00;95196.13;649871;216;31744;-77
2022/06/05 12:22:37;;;;;;;4.05;3.50;;;23.90;1.40;;;26.84;100.00;95200.73;648682;216;31749;-75
2022/06/05 12:25:27;;;;;;;4.00;3.60;;;23.80;1.40;;;27.16;100.00;95203.20;650667;212;31660;-76
2022/06/05 12:28:17;;;;;;;3.45;3.15;;;24.00;1.40;;;27.16;100.00;95202.67;653922;212;31580;-77
2022/06/05 12:30:58;;;;;;;4.03;3.60;;;23.80;1.40;;;27.17;100.00;95199.66;647183;212;31581;-75
2022/06/05 12:35:54;;;;;;;3.77;3.47;;;23.40;1.40;;;26.42;100.00;95188.45;646294;216;31571;-77
2022/06/05 12:38:49;;;;;;;4.03;3.72;;;23.10;1.40;;;26.68;100.00;95184.56;646807;212;32224;-75
2022/06/05 12:41:46;;;;;;;4.68;3.28;;;23.20;1.40;;;25.65;100.00;95186.27;647403;212;31596;-76
2022/06/05 12:44:34;;;;;;;3.58;3.22;;;22.70;1.40;;;25.57;100.00;95179.66;648710;216;31696;-75
2022/06/05 12:47:25;;;;;;;4.85;3.87;;;22.80;1.40;;;25.91;100.00;95172.03;644720;216;31627;-75
2022/06/05 12:50:33;;;;;;;5.12;3.60;;;23.10;1.40;;;25.32;100.00;95164.52;650052;216;32048;-75
2022/06/05 12:53:28;;;;;;;3.10;2.80;;;23.00;1.40;;;24.96;100.00;95176.20;650296;216;31535;-76
2022/06/05 12:56:38;;;;;;;4.78;4.05;;;22.60;1.40;;;24.96;100.00;95176.91;648688;216;31540;-75
2022/06/05 12:59:24;;;;;;;3.60;3.10;;;22.60;1.40;;;24.77;100.00;95177.59;649495;216;31572;-75
2022/06/05 13:02:22;;;;;;;2.87;2.65;;;22.70;1.40;;;25.01;100.00;95170.26;620159;226;31925;-75
2022/06/05 13:05:21;;;;;;;3.05;2.72;;;22.80;1.40;;;25.02;100.00;95173.92;643552;220;31613;-76
2022/06/05 13:08:04;;;;;;;2.83;2.53;;;23.00;1.40;;;25.03;100.00;95181.92;620924;225;31908;-76
2022/06/05 13:10:56;;;;;;;4.10;2.50;;;23.00;1.40;;;25.13;100.00;95172.59;643654;212;32612;-75
2022/06/05 13:13:49;;;;;;;2.70;2.43;;;22.90;1.40;;;25.07;100.00;95165.72;646484;216;32723;-76